• Join FlightAware (Why Join?)
  • Login
  • US Flag 
10:20PM EDT


 

Airport Tracker/Info


-or-


 

Live Flight TrackerFlight Track Log ✈ UAL4612 ✈ 07-Apr-2014 ✈ KORD - KBUF

Flight Track Log - Related Links

Times and Time Zones

All times are in EDT time to prevent confusion due to time zone crossing. See the UAL4612 flight status page for this flight to view local times or setup timezone preferences in your user account.

Time Position Orientation Groundspeed Altitude Reporting Facility
EDT Latitude Longitude Course Direction KTS MPH feet Rate Location/Type
09:05AM 42.0167 -87.8833 75° East 157 181 2,100  Level Chicago TRACON
09:06AM 42.0333 -87.8333 66° East 206 237 3,100 1,680 Climbing Chicago TRACON
09:07AM 42.0650 -87.7122 71° East 241 277 6,000 2,220 Climbing Chicago Center
09:08AM 42.0814 -87.6147 77° East 253 291 8,600 2,280 Climbing Chicago Center
09:09AM 42.0675 -87.2535 78° East  Level FlightAware Approximate
09:10AM 42.0953 -87.0903 75° East  Level FlightAware Approximate
09:10AM 42.0856 -87.5147 87° East 266 306 10,800  Level Chicago Center
09:11AM 42.0919 -87.4111 85° East 277 319 13,000 1,740 Climbing Chicago Center
09:12AM 42.1011 -87.2947 84° East 291 335 14,500 1,500 Climbing Chicago Center
09:13AM 42.1119 -87.1758 83° East 318 366 16,200 1,560 Climbing Chicago Center
09:14AM 42.1219 -87.0544 84° East 325 374 17,800 1,320 Climbing Chicago Center
09:15AM 42.1311 -86.9211 85° East 350 403 19,000 1,080 Climbing Chicago Center
09:16AM 42.1422 -86.7842 84° East 366 421 20,100 1,140 Climbing Chicago Center
09:17AM 42.1553 -86.6211 84° East 386 444 21,400 1,140 Climbing Chicago Center
09:18AM 42.1672 -86.4694 84° East 401 461 22,500 1,140 Climbing Chicago Center
09:19AM 42.1786 -86.3175 84° East 404 465 23,800 1,200 Climbing Chicago Center
09:20AM 42.1903 -86.1653 84° East 405 466 25,000 960 Climbing Chicago Center
09:21AM 42.2014 -86.0081 84° East 412 474 25,900 1,080 Climbing Chicago Center
09:22AM 42.2139 -85.8333 84° East 418 481 27,300 1,200 Climbing Chicago Center
09:23AM 42.2247 -85.6803 84° East 417 480 28,400 1,500 Climbing Chicago Center
09:24AM 42.2353 -85.5383 84° East 387 445 30,400 1,200 Climbing Chicago Center
09:25AM 42.2439 -85.3967 85° East 382 440 31,000 720 Climbing Chicago Center
09:26AM 42.2564 -85.2081 85° East 419 482 31,900 840 Climbing Chicago Center
09:27AM 42.2678 -85.0450 85° East 434 499 32,800 960 Climbing Chicago Center
09:28AM 42.2786 -84.8797 85° East 440 506 34,000 1,080 Climbing Chicago Center
09:29AM 42.2889 -84.7139 85° East 444 511 35,100 1,140 Climbing Chicago Center
09:30AM 42.2953 -84.6172 85° East 436 502 35,900 780 Climbing Cleveland Center
09:31AM 42.3042 -84.4531 86° East 435 501 36,400 480 Climbing Cleveland Center
09:32AM 42.3133 -84.2853 86° East 442 509 36,900 240 Climbing Cleveland Center
09:33AM 42.3247 -84.0769 86° East 460 529 37,000  Climbing Cleveland Center
09:34AM 42.3350 -83.8964 86° East 476 548 37,000  Level Cleveland Center
09:35AM 42.3450 -83.7072 86° East 497 572 37,000  Level Cleveland Center
09:36AM 42.3547 -83.5106 86° East 506 582 37,000  Level Cleveland Center
09:37AM 42.3647 -83.3222 86° East 504 580 37,000 -420 Level Cleveland Center
09:38AM 42.3731 -83.1339 87° East 494 568 36,200 -840 Descending Cleveland Center
09:39AM 42.3825 -82.9442 86° East 503 579 35,300 -960 Descending Cleveland Center
09:40AM 42.3903 -82.7506 87° East 512 589 34,300 -900 Descending Cleveland Center
09:41AM 42.4003 -82.5139 87° East 525 604 33,500 -840 Descending Cleveland Center
09:42AM 42.4089 -82.3139 87° East 530 610 32,600 -960 Descending Cleveland Center
09:43AM 42.4172 -82.1100 87° East 536 617 31,600 -960 Descending Cleveland Center
09:44AM 42.4244 -81.9103 87° East 532 612 30,700 -960 Descending Cleveland Center
09:45AM 42.4308 -81.7142 87° East 520 598 29,700 -960 Descending Cleveland Center
09:46AM 42.4378 -81.5203 87° East 514 592 28,800 -1,260 Descending Cleveland Center
09:47AM 42.4442 -81.3353 87° East 491 565 27,200 -1,800 Descending Cleveland Center
09:48AM 42.4497 -81.1664 87° East 450 518 25,200 -2,100 Descending Cleveland Center
09:49AM 42.4550 -80.9836 88° East 413 475 22,900 -1,920 Descending Cleveland Center
09:50AM 42.4581 -80.8361 88° East 391 450 21,300 -1,380 Descending Cleveland Center
09:51AM 42.4622 -80.6875 88° East 390 449 20,100 -1,200 Descending Cleveland Center
09:52AM 42.4658 -80.5350 88° East 399 459 18,900 -1,200 Descending Cleveland Center
09:54AM 42.4694 -80.3750 88° East 418 481 17,700 -1,200 Descending Cleveland Center
09:55AM 42.4706 -80.2136 89° East 421 484 16,500 -1,140 Descending Cleveland Center
09:56AM 42.4758 -80.0572 87° East 418 481 15,400 -1,200 Descending Cleveland Center
09:57AM 42.4806 -79.8978 88° East 405 466 14,100 -1,260 Descending Cleveland Center
09:58AM 42.4822 -79.7508 89° East 394 453 12,900 -1,140 Descending Cleveland Center
09:59AM 42.4858 -79.6075 88° East 386 444 11,800 -960 Descending Cleveland Center
10:00AM 42.5467 -79.4664 60° Northeast 392 451 11,000 -780 Descending Cleveland Center
10:01AM 42.6267 -79.3831 37° Northeast 364 419 10,200 -1,020 Descending Cleveland Center
10:02AM 42.6972 -79.3131 36° Northeast 299 344 8,900 -1,440 Descending Cleveland Center
10:03AM 42.7633 -79.2453 37° Northeast 288 331 7,300 -960 Descending Cleveland Center
10:04AM 42.8219 -79.1836 38° Northeast 283 326 7,000 -180 Descending Cleveland Center
10:05AM 42.8700 -79.1108 48° Northeast 251 289 7,000 -300 Level Cleveland Center
10:06AM 42.9178 -79.0400 47° Northeast 246 283 6,400 -780 Descending Cleveland Center
10:07AM 42.9650 -78.9711 47° Northeast 242 278 5,500 -1,020 Descending Cleveland Center
10:08AM 43.0006 -78.8956 57° Northeast 229 264 4,400 -780 Descending Cleveland Center
10:09AM 43.0261 -78.8131 67° East 225 259 4,000 -360 Descending Cleveland Center
10:10AM 43.0475 -78.7389 68° East 222 255 3,700 -600 Descending Cleveland Center
10:11AM 43.0114 -78.6947 138° Southeast 172 198 2,800 -1,080 Descending Cleveland Center
10:12AM 42.9733 -78.6883 173° South 156 180 1,500 -840 Descending Cleveland Center
10:13AM 42.9447 -78.7225 221° Southwest 142 163 1,100 -420 Descending Cleveland Center